Time;durP1;ratioP1;P1;durP2;ratioP2;P2;SDS_P1;SDS_P2;PMS_P1;PMS_P2;Temp;Humidity;BMP_temperature;BMP_pressure;BME280_temperature;BME280_humidity;BME280_pressure;Samples;Min_cycle;Max_cycle;Signal;HPM_P1;HPM_P2
2023/12/09 00:01:05;;;;;;;9.23;7.00;;;6.80;99.90;;;;;;5037884;28;20150;-65
2023/12/09 00:03:31;;;;;;;9.47;6.57;;;6.90;99.90;;;;;;5052282;28;20061;-64
2023/12/09 00:05:56;;;;;;;8.77;7.33;;;6.90;99.90;;;;;;5039448;28;20036;-65
2023/12/09 00:08:22;;;;;;;11.17;8.13;;;6.80;99.90;;;;;;5032268;28;20080;-66
2023/12/09 00:10:48;;;;;;;13.20;9.10;;;6.90;99.90;;;;;;5031729;28;20029;-64
2023/12/09 00:13:13;;;;;;;16.33;9.93;;;6.80;99.90;;;;;;5031616;28;20045;-73
2023/12/09 00:15:39;;;;;;;14.93;10.33;;;6.80;99.90;;;;;;5031564;28;20087;-74
2023/12/09 00:18:05;;;;;;;18.73;11.73;;;6.80;99.90;;;;;;5031676;28;20037;-73
2023/12/09 00:20:30;;;;;;;18.67;12.73;;;6.90;99.90;;;;;;5031572;28;20040;-74
2023/12/09 00:22:56;;;;;;;19.10;12.90;;;6.80;99.90;;;;;;5031366;28;20060;-74
2023/12/09 00:25:22;;;;;;;21.57;14.30;;;6.90;99.90;;;;;;5032274;28;20034;-74
2023/12/09 00:27:47;;;;;;;19.23;14.50;;;6.90;99.90;;;;;;5032439;28;20026;-73
2023/12/09 00:30:13;;;;;;;21.73;14.43;;;6.90;99.90;;;;;;5032296;28;20030;-74
2023/12/09 00:32:39;;;;;;;18.43;11.77;;;6.90;99.90;;;;;;5031836;28;20446;-74
2023/12/09 00:35:05;;;;;;;13.80;9.87;;;6.80;99.90;;;;;;5032213;28;20437;-71
2023/12/09 00:37:31;;;;;;;14.57;9.67;;;6.90;99.90;;;;;;5030532;28;20036;-75
2023/12/09 00:39:57;;;;;;;13.90;9.40;;;6.80;99.90;;;;;;5031880;28;20028;-72
2023/12/09 00:42:22;;;;;;;12.07;8.70;;;6.80;99.90;;;;;;5031912;28;20049;-72
2023/12/09 00:44:48;;;;;;;13.80;9.37;;;6.90;99.90;;;;;;5031828;28;20066;-73
2023/12/09 00:47:14;;;;;;;13.27;9.27;;;6.80;99.90;;;;;;5031865;28;20410;-72
2023/12/09 00:49:39;;;;;;;13.83;9.40;;;6.80;99.90;;;;;;5032300;28;20033;-73
2023/12/09 00:52:05;;;;;;;13.97;10.50;;;6.80;99.90;;;;;;5031833;28;20044;-71
2023/12/09 00:54:31;;;;;;;15.90;9.40;;;6.80;99.90;;;;;;5031714;28;20037;-73
2023/12/09 00:56:56;;;;;;;15.93;10.43;;;6.80;99.90;;;;;;5032110;28;20110;-73
2023/12/09 00:59:22;;;;;;;14.80;10.53;;;6.80;99.90;;;;;;5032010;28;20073;-72
2023/12/09 01:01:48;;;;;;;14.47;10.67;;;6.80;99.90;;;;;;5032047;28;20033;-67
2023/12/09 01:04:13;;;;;;;15.83;10.77;;;6.80;99.90;;;;;;5031951;28;20045;-70
2023/12/09 01:06:39;;;;;;;17.63;11.53;;;6.80;99.90;;;;;;5032041;28;20044;-64
2023/12/09 01:09:05;;;;;;;18.70;12.73;;;6.80;99.90;;;;;;5031982;28;20030;-65
2023/12/09 01:11:30;;;;;;;19.07;12.27;;;6.80;99.90;;;;;;5032265;28;20520;-65
2023/12/09 01:13:56;;;;;;;18.47;14.30;;;6.80;99.90;;;;;;5031546;28;20394;-64
2023/12/09 01:16:21;;;;;;;22.10;15.67;;;6.80;99.90;;;;;;5031661;28;20208;-64
2023/12/09 01:18:47;;;;;;;21.80;15.33;;;6.80;99.90;;;;;;5032004;28;20034;-64
2023/12/09 01:21:13;;;;;;;22.30;15.60;;;6.80;99.90;;;;;;5031833;28;20021;-65
2023/12/09 01:23:39;;;;;;;26.23;17.63;;;6.80;99.90;;;;;;5032044;28;20383;-64
2023/12/09 01:26:07;;;;;;;26.07;17.67;;;6.80;99.90;;;;;;5031974;28;20540;-64
2023/12/09 01:28:32;;;;;;;26.67;17.53;;;6.80;99.90;;;;;;5031537;28;20103;-64
2023/12/09 01:30:58;;;;;;;24.73;18.10;;;6.80;99.90;;;;;;5031634;28;20033;-64
2023/12/09 01:33:24;;;;;;;24.87;17.13;;;6.80;99.90;;;;;;5032563;28;20052;-64
2023/12/09 01:35:49;;;;;;;22.53;16.80;;;6.80;99.90;;;;;;5035398;28;20088;-64
2023/12/09 01:38:15;;;;;;;22.47;16.13;;;6.80;99.90;;;;;;5035275;28;20038;-64
2023/12/09 01:40:41;;;;;;;21.17;15.27;;;6.80;99.90;;;;;;5035032;28;20050;-64
2023/12/09 01:43:10;;;;;;;22.07;15.80;;;6.80;99.90;;;;;;5035050;28;20044;-65
2023/12/09 01:45:36;;;;;;;21.30;16.47;;;6.80;99.90;;;;;;5034938;28;20026;-64
2023/12/09 01:48:03;;;;;;;20.37;15.27;;;6.80;99.90;;;;;;5035091;28;20036;-67
2023/12/09 01:50:30;;;;;;;22.27;15.60;;;6.80;99.90;;;;;;5035035;28;20478;-64
2023/12/09 01:52:58;;;;;;;23.23;16.40;;;6.80;99.90;;;;;;5034767;28;20056;-64
2023/12/09 01:55:24;;;;;;;22.27;16.80;;;6.80;99.90;;;;;;5034886;28;20044;-65
2023/12/09 01:57:52;;;;;;;25.40;17.03;;;6.80;99.90;;;;;;5033820;28;20487;-65
2023/12/09 02:00:18;;;;;;;23.80;17.60;;;6.70;99.90;;;;;;5032007;28;20095;-64
2023/12/09 02:02:45;;;;;;;24.40;18.03;;;6.70;99.90;;;;;;5032114;28;20033;-65
2023/12/09 02:05:11;;;;;;;25.30;18.00;;;6.70;99.90;;;;;;5033489;28;20030;-65
2023/12/09 02:07:37;;;;;;;23.40;17.07;;;6.70;99.90;;;;;;5034424;28;20030;-64
2023/12/09 02:10:04;;;;;;;25.53;18.87;;;6.80;99.90;;;;;;5034412;28;20025;-64
2023/12/09 02:12:39;;;;;;;30.00;17.90;;;6.70;99.90;;;;;;5033920;28;20505;-69
2023/12/09 02:15:14;;;;;;;22.73;17.53;;;6.80;99.90;;;;;;5034258;28;20516;-72
2023/12/09 02:17:48;;;;;;;25.23;17.30;;;6.70;99.90;;;;;;5034522;28;20105;-65
2023/12/09 02:20:14;;;;;;;23.33;17.03;;;6.70;99.90;;;;;;5026703;28;20433;-65
2023/12/09 02:22:40;;;;;;;24.63;17.50;;;6.70;99.90;;;;;;5034076;28;20038;-64
2023/12/09 02:25:06;;;;;;;20.27;15.63;;;6.70;99.90;;;;;;5034175;28;20030;-65
2023/12/09 02:27:51;;;;;;;20.83;14.33;;;6.70;99.90;;;;;;5033728;28;20364;-64
2023/12/09 02:30:23;;;;;;;14.70;11.33;;;6.70;99.90;;;;;;5033956;28;20033;-65
2023/12/09 02:32:50;;;;;;;22.33;12.23;;;6.70;99.90;;;;;;5033803;28;20125;-64
2023/12/09 02:35:19;;;;;;;15.00;10.40;;;6.70;99.90;;;;;;5033748;28;20108;-65
2023/12/09 02:37:46;;;;;;;12.50;9.10;;;6.70;99.90;;;;;;5034148;28;20033;-64
2023/12/09 02:40:15;;;;;;;12.40;8.73;;;6.70;99.90;;;;;;5034174;28;20125;-64
2023/12/09 02:42:41;;;;;;;10.63;8.17;;;6.70;99.90;;;;;;5033884;28;20045;-64
2023/12/09 02:45:07;;;;;;;11.83;8.27;;;6.70;99.90;;;;;;5032663;28;20042;-64
2023/12/09 02:47:33;;;;;;;11.60;8.37;;;6.70;99.90;;;;;;5032939;28;20112;-73
2023/12/09 02:49:59;;;;;;;12.33;8.70;;;6.70;99.90;;;;;;5033240;28;20072;-73
2023/12/09 02:52:24;;;;;;;12.30;7.57;;;6.60;99.90;;;;;;5031980;28;20034;-74
2023/12/09 02:54:50;;;;;;;10.73;7.80;;;6.60;99.90;;;;;;5014121;28;20410;-74
2023/12/09 02:57:16;;;;;;;10.57;8.40;;;6.60;99.90;;;;;;5030316;28;20037;-73
2023/12/09 02:59:41;;;;;;;11.83;8.10;;;6.60;99.90;;;;;;5031299;28;20040;-74
2023/12/09 03:02:07;;;;;;;12.80;8.57;;;6.60;99.90;;;;;;5033183;28;20025;-74
2023/12/09 03:04:34;;;;;;;9.53;7.40;;;6.50;99.90;;;;;;5033345;28;20091;-73
2023/12/09 03:07:00;;;;;;;14.80;8.83;;;6.60;99.90;;;;;;5033421;28;20025;-73
2023/12/09 03:09:25;;;;;;;12.60;8.30;;;6.60;99.90;;;;;;5032626;28;20037;-70
2023/12/09 03:11:51;;;;;;;11.20;7.87;;;6.60;99.90;;;;;;5033587;28;20037;-74
2023/12/09 03:14:16;;;;;;;10.47;7.97;;;6.60;99.90;;;;;;5033485;28;20046;-73
2023/12/09 03:16:42;;;;;;;10.10;7.53;;;6.60;99.90;;;;;;5033514;28;20531;-72
2023/12/09 03:19:08;;;;;;;11.50;8.33;;;6.60;99.90;;;;;;5033286;28;20371;-73
2023/12/09 03:21:33;;;;;;;11.30;8.03;;;6.60;99.90;;;;;;5032882;28;20481;-72
2023/12/09 03:23:59;;;;;;;11.40;8.53;;;6.60;99.90;;;;;;5033213;28;20041;-73
2023/12/09 03:26:25;;;;;;;12.20;8.37;;;6.50;99.90;;;;;;5033136;28;20037;-73
2023/12/09 03:28:54;;;;;;;10.77;7.80;;;6.50;99.90;;;;;;5032989;28;20072;-72
2023/12/09 03:31:20;;;;;;;14.87;8.57;;;6.50;99.90;;;;;;5033040;28;20504;-73
2023/12/09 03:33:46;;;;;;;11.57;8.00;;;6.50;99.90;;;;;;5033072;28;20604;-72
2023/12/09 03:36:15;;;;;;;12.97;8.57;;;6.50;99.90;;;;;;5032801;28;20076;-73
2023/12/09 03:38:41;;;;;;;11.70;7.87;;;6.50;99.90;;;;;;5032955;28;20109;-74
2023/12/09 03:41:07;;;;;;;10.47;7.43;;;6.50;99.90;;;;;;5032724;28;20119;-73
2023/12/09 03:43:33;;;;;;;13.47;8.53;;;6.50;99.90;;;;;;5032917;28;20041;-74
2023/12/09 03:45:59;;;;;;;11.07;7.90;;;6.50;99.90;;;;;;5033018;28;20032;-72
2023/12/09 03:48:28;;;;;;;11.70;7.80;;;6.50;99.90;;;;;;5032690;28;20109;-74
2023/12/09 03:50:55;;;;;;;11.37;7.80;;;6.50;99.90;;;;;;5032730;28;20409;-73
2023/12/09 03:53:20;;;;;;;10.43;8.03;;;6.50;99.90;;;;;;5032254;28;20053;-66
2023/12/09 03:55:48;;;;;;;11.60;8.47;;;6.50;99.90;;;;;;5014721;28;20037;-64
2023/12/09 03:58:13;;;;;;;14.57;8.80;;;6.50;99.90;;;;;;5032746;28;20049;-64
2023/12/09 04:00:39;;;;;;;11.07;7.63;;;6.50;99.90;;;;;;5032765;28;20076;-64
2023/12/09 04:03:05;;;;;;;11.97;8.17;;;6.40;99.90;;;;;;5032366;28;20037;-64
2023/12/09 04:05:31;;;;;;;10.37;7.63;;;6.50;99.90;;;;;;5031926;28;20048;-65
2023/12/09 04:07:57;;;;;;;12.57;8.40;;;6.50;99.90;;;;;;5032085;28;20108;-64
2023/12/09 04:10:22;;;;;;;12.27;8.00;;;6.50;99.90;;;;;;5032466;28;20049;-64
2023/12/09 04:12:48;;;;;;;11.37;7.83;;;6.50;99.90;;;;;;5032433;28;20505;-65
2023/12/09 04:15:14;;;;;;;16.70;8.73;;;6.50;99.90;;;;;;5032231;28;20037;-64
2023/12/09 04:17:40;;;;;;;11.43;9.33;;;6.50;99.90;;;;;;5032289;28;20026;-64
2023/12/09 04:20:08;;;;;;;14.33;9.20;;;6.50;99.90;;;;;;5032026;28;20485;-65
2023/12/09 04:22:38;;;;;;;12.20;8.73;;;6.50;99.90;;;;;;5032395;28;20030;-64
2023/12/09 04:25:05;;;;;;;11.97;8.20;;;6.50;99.90;;;;;;5032186;28;20035;-64
2023/12/09 04:27:34;;;;;;;10.70;7.87;;;6.50;99.90;;;;;;5032087;28;20026;-64
2023/12/09 04:30:01;;;;;;;11.97;7.87;;;6.50;99.90;;;;;;5031596;28;20033;-70
2023/12/09 04:32:30;;;;;;;11.10;7.57;;;6.50;99.90;;;;;;5032167;28;20042;-64
2023/12/09 04:34:57;;;;;;;10.73;8.10;;;6.40;99.90;;;;;;5031894;28;20042;-64
2023/12/09 04:37:23;;;;;;;11.23;7.80;;;6.40;99.90;;;;;;5032242;28;20092;-64
2023/12/09 04:39:49;;;;;;;10.77;7.90;;;6.50;99.90;;;;;;5041235;23;20037;-66
2023/12/09 04:42:15;;;;;;;12.60;7.63;;;6.50;99.90;;;;;;5069473;28;20044;-64
2023/12/09 04:44:41;;;;;;;11.10;8.47;;;6.50;99.90;;;;;;5071794;28;20449;-64
2023/12/09 04:47:07;;;;;;;14.80;9.03;;;6.40;99.90;;;;;;5071992;28;20031;-64
2023/12/09 04:49:33;;;;;;;11.03;8.33;;;6.40;99.90;;;;;;5072198;28;20033;-64
2023/12/09 04:51:58;;;;;;;11.03;8.17;;;6.40;99.90;;;;;;5071668;28;20112;-64
2023/12/09 04:54:24;;;;;;;11.50;8.07;;;6.40;99.90;;;;;;5071953;28;20045;-64
2023/12/09 04:56:50;;;;;;;9.67;7.27;;;6.40;99.90;;;;;;5072069;28;20536;-65
2023/12/09 04:59:16;;;;;;;11.23;8.03;;;6.40;99.90;;;;;;5071840;28;20054;-65
2023/12/09 05:01:41;;;;;;;10.87;7.63;;;6.40;99.90;;;;;;5065692;28;20395;-64
2023/12/09 05:04:11;;;;;;;11.97;8.83;;;6.40;99.90;;;;;;5066894;28;20071;-65
2023/12/09 05:06:37;;;;;;;11.60;8.20;;;6.40;99.90;;;;;;5051930;28;20040;-64
2023/12/09 05:09:02;;;;;;;12.10;9.03;;;6.40;99.90;;;;;;5053378;28;20037;-64
2023/12/09 05:11:28;;;;;;;11.23;8.63;;;6.40;99.90;;;;;;5055369;28;20045;-64
2023/12/09 05:13:54;;;;;;;10.67;8.13;;;6.40;99.90;;;;;;5055166;28;20124;-64
2023/12/09 05:16:19;;;;;;;11.27;8.33;;;6.30;99.90;;;;;;5055370;28;20477;-64
2023/12/09 05:18:45;;;;;;;10.20;7.73;;;6.30;99.90;;;;;;5054689;28;20083;-64
2023/12/09 05:21:12;;;;;;;11.40;8.13;;;6.30;99.90;;;;;;5055358;28;20033;-64
2023/12/09 05:23:38;;;;;;;10.10;8.13;;;6.20;99.90;;;;;;5055399;28;20040;-65
2023/12/09 05:26:04;;;;;;;11.53;8.10;;;6.20;99.90;;;;;;5055573;28;20036;-65
2023/12/09 05:28:30;;;;;;;12.23;8.80;;;6.10;99.90;;;;;;5055195;28;20045;-64
2023/12/09 05:30:56;;;;;;;11.27;8.33;;;6.20;99.90;;;;;;5055472;28;20033;-65
2023/12/09 05:33:22;;;;;;;11.67;8.57;;;6.20;99.90;;;;;;5055106;28;20045;-64
2023/12/09 05:35:48;;;;;;;11.70;8.10;;;6.10;99.90;;;;;;5055416;28;20060;-64
2023/12/09 05:38:14;;;;;;;14.07;9.00;;;6.10;99.90;;;;;;5055124;28;20041;-64
2023/12/09 05:40:40;;;;;;;12.97;9.43;;;6.10;99.90;;;;;;5054888;28;20041;-67
2023/12/09 05:43:05;;;;;;;11.47;8.27;;;6.10;99.90;;;;;;5054873;28;20037;-64
2023/12/09 05:45:31;;;;;;;12.17;8.90;;;6.00;99.90;;;;;;5054952;28;20044;-73
2023/12/09 05:47:57;;;;;;;14.17;8.73;;;6.00;99.90;;;;;;5054745;28;20037;-72
2023/12/09 05:50:23;;;;;;;11.23;8.87;;;6.00;99.90;;;;;;5036928;28;20423;-74
2023/12/09 05:52:49;;;;;;;10.43;8.47;;;6.00;99.90;;;;;;5055006;28;20127;-74
2023/12/09 05:55:16;;;;;;;12.17;8.33;;;6.00;99.90;;;;;;5054622;28;20428;-71
2023/12/09 05:57:42;;;;;;;13.27;7.83;;;6.00;99.90;;;;;;5054684;28;20029;-74
2023/12/09 06:00:10;;;;;;;10.70;8.03;;;6.00;99.90;;;;;;5054639;28;20033;-73
2023/12/09 06:02:36;;;;;;;10.70;7.53;;;6.00;99.90;;;;;;5054516;28;20029;-74
2023/12/09 06:05:02;;;;;;;10.93;7.77;;;6.00;99.90;;;;;;5054564;28;20033;-74
2023/12/09 06:07:28;;;;;;;11.07;7.67;;;6.00;99.90;;;;;;5054669;28;20112;-73
2023/12/09 06:09:54;;;;;;;11.07;7.43;;;5.90;99.90;;;;;;5054384;28;20519;-73
2023/12/09 06:12:20;;;;;;;11.37;7.63;;;5.90;99.90;;;;;;5054235;28;20483;-73
2023/12/09 06:14:46;;;;;;;14.23;7.47;;;5.90;99.90;;;;;;5054345;28;20037;-73
2023/12/09 06:17:11;;;;;;;10.93;7.27;;;5.90;99.90;;;;;;5054236;28;20103;-74
2023/12/09 06:19:37;;;;;;;10.10;7.40;;;5.90;99.90;;;;;;5054205;28;20032;-74
2023/12/09 06:22:03;;;;;;;10.93;7.93;;;5.90;99.90;;;;;;5069553;28;20075;-73
2023/12/09 06:24:29;;;;;;;10.50;7.77;;;5.90;99.90;;;;;;5074356;28;20056;-72
2023/12/09 06:26:54;;;;;;;11.70;7.40;;;5.90;99.90;;;;;;5074177;28;20037;-71
2023/12/09 06:29:20;;;;;;;11.10;7.27;;;5.90;99.90;;;;;;5074207;28;20028;-72
2023/12/09 06:31:46;;;;;;;11.10;7.40;;;5.80;99.90;;;;;;5056275;28;20373;-72
2023/12/09 06:34:11;;;;;;;10.67;7.80;;;5.80;99.90;;;;;;5074424;28;20515;-73
2023/12/09 06:36:37;;;;;;;10.90;7.93;;;5.90;99.90;;;;;;5074537;28;20163;-72
2023/12/09 06:39:03;;;;;;;12.13;7.67;;;5.80;99.90;;;;;;5074307;28;20037;-73
2023/12/09 06:41:29;;;;;;;11.43;7.67;;;5.90;99.90;;;;;;5074076;28;20045;-71
2023/12/09 06:43:54;;;;;;;9.77;7.27;;;5.80;99.90;;;;;;5074143;28;20040;-73
2023/12/09 06:46:20;;;;;;;9.73;7.00;;;5.80;99.90;;;;;;5074264;28;20118;-73
2023/12/09 06:48:46;;;;;;;10.33;7.27;;;5.80;99.90;;;;;;5073962;28;20032;-74
2023/12/09 06:51:15;;;;;;;10.17;7.60;;;5.80;99.90;;;;;;5073712;28;20533;-72
2023/12/09 06:53:42;;;;;;;11.00;7.63;;;5.80;99.90;;;;;;5073920;28;20532;-73
2023/12/09 06:56:08;;;;;;;13.77;8.20;;;5.80;99.90;;;;;;5073623;28;20055;-73
2023/12/09 06:58:36;;;;;;;12.57;8.73;;;5.70;99.90;;;;;;5074180;28;20480;-70
2023/12/09 07:01:02;;;;;;;11.90;8.20;;;5.80;99.90;;;;;;5073887;28;20033;-66
2023/12/09 07:03:27;;;;;;;12.50;7.87;;;5.70;99.90;;;;;;5069808;28;20148;-65
2023/12/09 07:05:53;;;;;;;10.60;7.57;;;5.80;99.90;;;;;;5053475;28;20033;-65
2023/12/09 07:08:18;;;;;;;13.73;7.60;;;5.70;99.90;;;;;;5053533;28;20076;-64
2023/12/09 07:10:47;;;;;;;11.43;7.63;;;5.70;99.90;;;;;;5053582;28;20033;-65
2023/12/09 07:13:13;;;;;;;12.97;7.40;;;5.70;99.90;;;;;;5069077;28;20101;-65
2023/12/09 07:15:39;;;;;;;12.77;8.00;;;5.80;99.90;;;;;;5067579;28;20033;-65
2023/12/09 07:18:05;;;;;;;12.53;7.50;;;5.80;99.90;;;;;;5066977;28;20045;-65
2023/12/09 07:20:30;;;;;;;13.07;8.93;;;5.80;99.90;;;;;;5061795;28;20033;-65
2023/12/09 07:22:56;;;;;;;11.43;8.03;;;5.80;99.90;;;;;;5053230;28;20033;-65
2023/12/09 07:25:23;;;;;;;11.53;8.00;;;5.80;99.90;;;;;;5053115;28;20040;-66
2023/12/09 07:27:50;;;;;;;11.20;7.80;;;5.70;99.90;;;;;;5050889;28;20044;-67
2023/12/09 07:30:16;;;;;;;10.63;7.50;;;5.80;99.90;;;;;;5050229;28;20033;-67
2023/12/09 07:32:42;;;;;;;11.30;7.20;;;5.80;99.90;;;;;;5050215;28;20496;-66
2023/12/09 07:35:08;;;;;;;11.07;7.33;;;5.70;99.90;;;;;;5053347;28;20033;-66
2023/12/09 07:37:33;;;;;;;11.53;7.87;;;5.80;99.90;;;;;;5050329;28;20397;-66
2023/12/09 07:39:59;;;;;;;11.30;8.10;;;5.70;99.90;;;;;;5049831;28;20060;-65
2023/12/09 07:42:25;;;;;;;11.10;7.63;;;5.70;99.90;;;;;;5051822;28;20036;-65
2023/12/09 07:44:50;;;;;;;10.93;7.50;;;5.70;99.90;;;;;;5035117;28;20039;-65
2023/12/09 07:47:16;;;;;;;12.57;8.77;;;5.70;99.90;;;;;;5052864;28;20021;-64
2023/12/09 07:49:42;;;;;;;10.73;7.90;;;5.70;99.90;;;;;;5035178;28;20338;-64
2023/12/09 07:52:08;;;;;;;11.17;7.83;;;5.70;99.90;;;;;;5053095;28;20029;-65
2023/12/09 07:54:34;;;;;;;15.83;9.60;;;5.80;99.90;;;;;;5052830;28;20040;-64
2023/12/09 07:56:59;;;;;;;12.17;9.10;;;5.80;99.90;;;;;;5052651;28;20114;-64
2023/12/09 07:59:25;;;;;;;15.13;9.10;;;5.80;99.90;;;;;;5066295;28;20094;-64
2023/12/09 08:01:51;;;;;;;15.33;9.40;;;5.80;99.90;;;;;;5072568;28;20025;-64
2023/12/09 08:04:16;;;;;;;15.53;9.20;;;5.80;99.90;;;;;;5072500;28;20033;-64
2023/12/09 08:06:42;;;;;;;12.73;8.73;;;5.80;99.90;;;;;;5054296;28;20090;-64
2023/12/09 08:09:09;;;;;;;17.23;9.20;;;5.80;99.90;;;;;;5065029;28;20047;-65
2023/12/09 08:11:35;;;;;;;14.00;8.90;;;5.80;99.90;;;;;;5056750;28;20045;-64
2023/12/09 08:14:00;;;;;;;10.60;7.83;;;5.70;99.90;;;;;;5052413;28;20538;-66
2023/12/09 08:16:26;;;;;;;12.57;8.13;;;5.70;99.90;;;;;;5052462;28;20029;-64
2023/12/09 08:18:53;;;;;;;10.57;7.60;;;5.70;99.90;;;;;;5052360;28;20044;-64
2023/12/09 08:21:18;;;;;;;11.40;7.77;;;5.70;99.90;;;;;;5052405;28;20037;-64
2023/12/09 08:23:44;;;;;;;11.73;8.63;;;5.70;99.90;;;;;;5052360;28;20374;-66
2023/12/09 08:26:16;;;;;;;10.60;7.83;;;5.70;99.90;;;;;;5052700;28;20055;-68
2023/12/09 08:28:42;;;;;;;11.43;7.88;;;5.70;99.90;;;;;;5052560;28;20033;-67
2023/12/09 08:31:08;;;;;;;12.43;8.77;;;5.80;99.90;;;;;;5062530;28;20405;-71
2023/12/09 08:33:33;;;;;;;10.40;7.87;;;5.80;99.90;;;;;;5059098;28;20087;-66
2023/12/09 08:35:59;;;;;;;12.77;8.90;;;5.80;99.90;;;;;;5072342;28;20029;-66
2023/12/09 08:38:25;;;;;;;24.17;17.20;;;5.90;99.90;;;;;;5072183;28;20036;-70
2023/12/09 08:40:51;;;;;;;17.03;11.93;;;6.00;99.90;;;;;;5071907;28;20048;-66
2023/12/09 08:43:17;;;;;;;11.33;8.33;;;6.00;99.90;;;;;;5073362;28;20041;-68
2023/12/09 08:45:42;;;;;;;11.20;7.93;;;6.10;99.90;;;;;;5076433;28;20082;-64
2023/12/09 08:48:08;;;;;;;11.20;7.57;;;6.10;99.90;;;;;;5058532;28;20071;-64
2023/12/09 08:50:33;;;;;;;10.80;7.67;;;6.20;99.90;;;;;;5076325;28;20036;-65
2023/12/09 08:52:59;;;;;;;13.20;8.53;;;6.20;99.90;;;;;;5075762;28;20044;-64
2023/12/09 08:55:25;;;;;;;9.60;7.23;;;6.30;99.90;;;;;;5076271;28;20056;-65
2023/12/09 08:57:51;;;;;;;9.50;7.23;;;6.30;99.90;;;;;;5071606;28;20037;-64
2023/12/09 09:00:20;;;;;;;11.63;6.77;;;6.40;99.90;;;;;;5063419;28;20106;-64
2023/12/09 09:02:47;;;;;;;12.43;7.20;;;6.40;99.90;;;;;;5056146;28;20112;-65
2023/12/09 09:05:13;;;;;;;10.27;7.40;;;6.50;99.90;;;;;;5055879;28;20041;-65
2023/12/09 09:07:40;;;;;;;12.30;7.40;;;6.50;99.90;;;;;;5056028;28;20033;-64
2023/12/09 09:10:07;;;;;;;10.37;7.10;;;6.60;99.90;;;;;;5056033;28;20063;-64
2023/12/09 09:12:33;;;;;;;10.73;7.27;;;6.60;99.90;;;;;;5055838;28;20061;-65
2023/12/09 09:14:59;;;;;;;10.97;6.57;;;6.70;99.90;;;;;;5056013;28;20060;-64
2023/12/09 09:17:24;;;;;;;10.50;7.27;;;6.80;99.90;;;;;;5055776;28;20139;-64
2023/12/09 09:19:51;;;;;;;10.23;7.60;;;6.80;99.90;;;;;;5055943;28;20037;-64
2023/12/09 09:22:17;;;;;;;9.97;7.10;;;6.90;99.90;;;;;;5056060;28;20037;-64
2023/12/09 09:24:42;;;;;;;10.40;7.87;;;7.00;99.90;;;;;;5056071;28;20499;-64
2023/12/09 09:27:08;;;;;;;9.50;6.87;;;7.00;99.90;;;;;;5055769;28;20487;-64
2023/12/09 09:29:34;;;;;;;10.80;7.33;;;7.00;99.80;;;;;;5055910;28;20091;-64
2023/12/09 09:31:59;;;;;;;10.53;7.33;;;7.10;99.60;;;;;;5055605;28;20033;-64
2023/12/09 09:34:25;;;;;;;10.13;7.63;;;7.20;99.60;;;;;;5037431;28;20386;-64
2023/12/09 09:36:51;;;;;;;13.23;9.20;;;7.20;99.50;;;;;;5055433;28;20052;-65
2023/12/09 09:39:17;;;;;;;13.73;10.30;;;7.30;99.40;;;;;;5055763;28;20104;-64
2023/12/09 09:42:18;;;;;;;12.83;8.63;;;7.30;99.40;;;;;;5055419;28;20048;-65
2023/12/09 09:45:05;;;;;;;14.50;9.67;;;7.40;99.40;;;;;;5051293;28;20396;-64
2023/12/09 09:47:36;;;;;;;13.80;9.70;;;7.50;99.30;;;;;;5055297;28;20491;-64
2023/12/09 09:50:12;;;;;;;13.93;9.07;;;7.50;99.40;;;;;;5055384;28;20037;-64
2023/12/09 09:52:41;;;;;;;12.73;8.13;;;7.60;99.50;;;;;;5055518;28;20091;-64
2023/12/09 09:55:08;;;;;;;10.77;7.73;;;7.60;99.50;;;;;;5054531;28;20037;-64
2023/12/09 09:57:34;;;;;;;12.50;9.53;;;7.70;99.50;;;;;;5055104;28;20061;-64
2023/12/09 10:00:01;;;;;;;13.53;9.23;;;7.70;99.50;;;;;;5055421;28;20102;-64
2023/12/09 10:02:27;;;;;;;12.30;9.20;;;7.70;99.50;;;;;;5055016;28;20116;-65
2023/12/09 10:04:53;;;;;;;12.57;8.00;;;7.80;99.30;;;;;;5054801;28;20044;-64
2023/12/09 10:07:20;;;;;;;10.43;7.50;;;7.80;99.00;;;;;;5054834;28;20425;-65
2023/12/09 10:09:46;;;;;;;11.47;8.30;;;7.80;98.70;;;;;;5054863;28;20051;-65
2023/12/09 10:12:12;;;;;;;12.13;8.50;;;7.90;98.90;;;;;;5055002;28;20028;-64
2023/12/09 10:14:38;;;;;;;9.43;7.17;;;7.90;99.00;;;;;;5054781;28;20041;-65
2023/12/09 10:17:05;;;;;;;9.73;6.80;;;8.00;98.90;;;;;;5054961;28;20047;-64
2023/12/09 10:19:33;;;;;;;8.57;6.07;;;8.10;98.90;;;;;;5055067;28;20049;-64
2023/12/09 10:21:59;;;;;;;9.03;6.67;;;8.20;98.70;;;;;;5054871;28;20025;-65
2023/12/09 10:24:25;;;;;;;10.30;5.83;;;8.30;98.50;;;;;;5054694;28;20060;-64
2023/12/09 10:26:51;;;;;;;6.40;5.43;;;8.30;98.30;;;;;;5054877;28;20073;-65
2023/12/09 10:29:17;;;;;;;8.50;6.07;;;8.40;98.10;;;;;;5054796;28;20067;-65
2023/12/09 10:31:42;;;;;;;8.47;5.70;;;8.50;97.40;;;;;;5054436;28;20132;-64
2023/12/09 10:34:12;;;;;;;9.13;5.70;;;8.50;97.00;;;;;;5054306;28;20099;-64
2023/12/09 10:36:38;;;;;;;7.97;5.70;;;8.60;96.70;;;;;;5054387;28;20060;-65
2023/12/09 10:39:05;;;;;;;8.60;5.90;;;8.70;96.60;;;;;;5054354;28;20523;-64
2023/12/09 10:41:30;;;;;;;8.63;6.00;;;8.80;96.10;;;;;;5054162;28;20052;-64
2023/12/09 10:43:56;;;;;;;9.47;6.33;;;8.90;95.80;;;;;;5054068;28;20087;-65
2023/12/09 10:46:22;;;;;;;11.47;5.83;;;8.90;95.70;;;;;;5054168;28;20396;-64
2023/12/09 10:48:48;;;;;;;7.90;5.30;;;8.90;95.90;;;;;;5054358;28;20385;-64
2023/12/09 10:51:14;;;;;;;7.90;5.33;;;8.90;95.60;;;;;;5054212;28;20095;-65
2023/12/09 10:53:40;;;;;;;9.27;5.83;;;8.90;95.50;;;;;;5054298;28;20053;-65
2023/12/09 10:56:07;;;;;;;7.67;5.63;;;9.00;95.50;;;;;;5054326;28;20507;-64
2023/12/09 10:58:36;;;;;;;7.20;5.50;;;8.90;95.60;;;;;;5054017;28;20057;-65
2023/12/09 11:01:03;;;;;;;7.97;5.30;;;8.90;95.60;;;;;;5053688;28;20378;-65
2023/12/09 11:03:29;;;;;;;7.63;4.93;;;9.00;95.30;;;;;;5053899;28;20064;-65
2023/12/09 11:05:58;;;;;;;6.03;5.10;;;8.90;95.10;;;;;;5053042;28;20044;-64
2023/12/09 11:08:28;;;;;;;8.07;5.90;;;8.90;94.90;;;;;;5053741;28;20033;-65
2023/12/09 11:10:56;;;;;;;7.20;5.63;;;8.90;94.90;;;;;;5053763;28;20037;-64
2023/12/09 11:13:26;;;;;;;7.93;5.63;;;9.00;94.90;;;;;;5053714;28;20045;-64
2023/12/09 11:16:28;;;;;;;9.30;5.80;;;9.00;94.90;;;;;;5036017;28;20041;-64
2023/12/09 11:18:58;;;;;;;8.17;5.43;;;9.10;94.50;;;;;;4972948;28;20061;-64
2023/12/09 11:21:25;;;;;;;6.77;5.33;;;9.10;94.50;;;;;;5039472;28;20504;-64
2023/12/09 11:23:53;;;;;;;6.67;5.50;;;9.10;94.60;;;;;;5053573;28;20082;-65
2023/12/09 11:26:25;;;;;;;6.57;5.20;;;9.10;94.60;;;;;;5053741;28;20036;-64
2023/12/09 11:29:04;;;;;;;;;;;9.20;94.70;;;;;;5053959;28;20029;-65
2023/12/09 11:31:43;;;;;;;8.60;5.73;;;9.20;94.60;;;;;;5053469;28;20390;-65
2023/12/09 11:34:19;;;;;;;7.70;5.50;;;9.30;94.50;;;;;;5053395;28;20057;-64
2023/12/09 11:36:46;;;;;;;7.70;5.63;;;9.40;94.50;;;;;;5053254;28;20086;-64
2023/12/09 11:39:13;;;;;;;8.53;5.53;;;9.40;94.30;;;;;;5053311;28;20052;-64
2023/12/09 11:41:40;;;;;;;8.07;5.50;;;9.50;94.20;;;;;;5053262;28;20045;-65
2023/12/09 11:44:08;;;;;;;8.03;5.33;;;9.50;94.10;;;;;;5053256;28;20053;-65
2023/12/09 11:46:35;;;;;;;7.60;5.50;;;9.60;94.00;;;;;;5053371;28;20041;-64
2023/12/09 11:49:05;;;;;;;9.87;5.60;;;9.60;93.70;;;;;;5053239;28;20094;-64
2023/12/09 11:51:34;;;;;;;10.30;6.70;;;9.70;93.60;;;;;;5052988;28;20040;-65
2023/12/09 11:54:02;;;;;;;8.00;4.90;;;9.80;93.70;;;;;;5053054;28;20397;-65
2023/12/09 11:56:28;;;;;;;7.57;5.83;;;9.80;93.60;;;;;;5053038;28;20047;-64
2023/12/09 11:58:54;;;;;;;7.77;5.33;;;9.80;93.50;;;;;;5053011;28;20072;-64
2023/12/09 12:01:21;;;;;;;7.37;5.40;;;9.80;93.10;;;;;;5053123;28;20434;-64
2023/12/09 12:03:48;;;;;;;7.13;5.70;;;9.90;93.00;;;;;;5053038;28;20033;-64
2023/12/09 12:06:18;;;;;;;8.23;5.67;;;9.90;92.60;;;;;;5052873;28;20041;-65
2023/12/09 12:08:46;;;;;;;10.20;5.50;;;9.80;91.70;;;;;;5052845;28;20104;-64
2023/12/09 12:11:15;;;;;;;8.50;5.80;;;9.90;91.70;;;;;;5053073;28;20037;-65
2023/12/09 12:13:41;;;;;;;8.17;5.27;;;9.90;91.80;;;;;;5053012;28;20044;-65
2023/12/09 12:16:08;;;;;;;7.50;5.50;;;9.90;92.00;;;;;;5052973;28;20392;-64
2023/12/09 12:18:34;;;;;;;8.50;5.27;;;9.90;92.20;;;;;;5052844;28;20040;-65
2023/12/09 12:21:00;;;;;;;7.27;5.40;;;9.90;91.70;;;;;;5052929;28;20037;-64
2023/12/09 12:23:26;;;;;;;8.03;5.80;;;9.90;91.80;;;;;;5052577;28;20036;-65
2023/12/09 12:25:58;;;;;;;7.03;5.07;;;9.90;91.90;;;;;;5053021;28;20029;-64
2023/12/09 12:28:24;;;;;;;;;;;9.90;92.10;;;;;;5053326;28;20037;-64
2023/12/09 12:30:55;;;;;;;6.47;4.80;;;10.00;91.70;;;;;;5052657;28;19905;-64
2023/12/09 12:33:30;;;;;;;7.50;4.23;;;10.00;91.80;;;;;;5052584;28;20491;-64
2023/12/09 12:35:57;;;;;;;5.13;3.72;;;10.00;91.70;;;;;;5052768;28;20029;-64
2023/12/09 12:38:25;;;;;;;5.30;3.90;;;10.00;91.00;;;;;;5052773;28;20500;-65
2023/12/09 12:40:52;;;;;;;5.03;3.80;;;10.00;90.60;;;;;;5052529;28;20051;-64
2023/12/09 12:43:19;;;;;;;5.97;3.80;;;10.00;90.80;;;;;;5052548;28;20120;-64
2023/12/09 12:45:52;;;;;;;5.63;4.03;;;10.00;90.20;;;;;;5052486;28;20039;-65